sensor_id;sensor_type;location;lat;lon;timestamp;temperature;humidity
68109;SHT30;54893;49.864;19.084;2023-07-20T00:01:11;17.61;77.95
68109;SHT30;54893;49.864;19.084;2023-07-20T00:06:12;17.50;79.80
68109;SHT30;54893;49.864;19.084;2023-07-20T00:11:12;17.47;77.22
68109;SHT30;54893;49.864;19.084;2023-07-20T00:16:13;17.53;80.03
68109;SHT30;54893;49.864;19.084;2023-07-20T00:21:13;17.67;77.54
68109;SHT30;54893;49.864;19.084;2023-07-20T00:26:14;18.00;77.10
68109;SHT30;54893;49.864;19.084;2023-07-20T00:31:14;18.73;79.45
68109;SHT30;54893;49.864;19.084;2023-07-20T00:36:14;18.91;78.38
68109;SHT30;54893;49.864;19.084;2023-07-20T00:41:15;18.99;76.34
68109;SHT30;54893;49.864;19.084;2023-07-20T00:46:15;18.93;76.66
68109;SHT30;54893;49.864;19.084;2023-07-20T00:51:15;18.81;77.43
68109;SHT30;54893;49.864;19.084;2023-07-20T00:56:16;18.82;77.25
68109;SHT30;54893;49.864;19.084;2023-07-20T01:01:16;18.62;78.13
68109;SHT30;54893;49.864;19.084;2023-07-20T01:16:59;18.22;79.08
68109;SHT30;54893;49.864;19.084;2023-07-20T01:22:21;18.09;80.34
68109;SHT30;54893;49.864;19.084;2023-07-20T01:32:46;18.00;79.49
68109;SHT30;54893;49.864;19.084;2023-07-20T01:37:47;18.01;79.71
68109;SHT30;54893;49.864;19.084;2023-07-20T01:42:48;18.11;79.63
68109;SHT30;54893;49.864;19.084;2023-07-20T01:47:48;17.97;79.89
68109;SHT30;54893;49.864;19.084;2023-07-20T01:52:48;17.90;80.04
68109;SHT30;54893;49.864;19.084;2023-07-20T01:57:49;17.85;80.32
68109;SHT30;54893;49.864;19.084;2023-07-20T02:02:50;17.87;80.65
68109;SHT30;54893;49.864;19.084;2023-07-20T02:07:50;17.81;80.81
68109;SHT30;54893;49.864;19.084;2023-07-20T02:12:51;17.80;81.28
68109;SHT30;54893;49.864;19.084;2023-07-20T02:17:51;17.80;81.59
68109;SHT30;54893;49.864;19.084;2023-07-20T02:22:51;17.50;83.44
68109;SHT30;54893;49.864;19.084;2023-07-20T02:27:52;17.44;83.78
68109;SHT30;54893;49.864;19.084;2023-07-20T02:32:52;17.30;84.08
68109;SHT30;54893;49.864;19.084;2023-07-20T02:37:52;17.36;83.53
68109;SHT30;54893;49.864;19.084;2023-07-20T02:42:53;17.51;82.18
68109;SHT30;54893;49.864;19.084;2023-07-20T02:47:53;17.15;83.66
68109;SHT30;54893;49.864;19.084;2023-07-20T02:52:54;17.15;82.66
68109;SHT30;54893;49.864;19.084;2023-07-20T02:57:54;17.29;81.22
68109;SHT30;54893;49.864;19.084;2023-07-20T03:02:54;16.89;82.29
68109;SHT30;54893;49.864;19.084;2023-07-20T03:07:55;16.58;83.46
68109;SHT30;54893;49.864;19.084;2023-07-20T03:12:56;16.68;82.87
68109;SHT30;54893;49.864;19.084;2023-07-20T03:17:56;16.22;84.41
68109;SHT30;54893;49.864;19.084;2023-07-20T03:22:58;16.26;84.21
68109;SHT30;54893;49.864;19.084;2023-07-20T03:27:58;16.22;84.54
68109;SHT30;54893;49.864;19.084;2023-07-20T03:32:59;16.32;84.41
68109;SHT30;54893;49.864;19.084;2023-07-20T03:37:59;16.28;84.64
68109;SHT30;54893;49.864;19.084;2023-07-20T03:42:59;16.29;85.04
68109;SHT30;54893;49.864;19.084;2023-07-20T03:48:00;16.21;85.35
68109;SHT30;54893;49.864;19.084;2023-07-20T03:53:00;16.21;85.43
68109;SHT30;54893;49.864;19.084;2023-07-20T03:58:01;16.12;85.56
68109;SHT30;54893;49.864;19.084;2023-07-20T04:03:01;16.18;85.60
68109;SHT30;54893;49.864;19.084;2023-07-20T04:08:02;16.26;85.48
68109;SHT30;54893;49.864;19.084;2023-07-20T04:13:03;16.36;85.44
68109;SHT30;54893;49.864;19.084;2023-07-20T04:18:03;16.25;85.51
68109;SHT30;54893;49.864;19.084;2023-07-20T04:23:04;16.21;85.78
68109;SHT30;54893;49.864;19.084;2023-07-20T04:28:06;16.12;85.91
68109;SHT30;54893;49.864;19.084;2023-07-20T04:33:08;16.14;86.05
68109;SHT30;54893;49.864;19.084;2023-07-20T04:38:09;16.47;85.26
68109;SHT30;54893;49.864;19.084;2023-07-20T04:43:09;16.82;85.05
68109;SHT30;54893;49.864;19.084;2023-07-20T04:48:11;17.49;84.80
68109;SHT30;54893;49.864;19.084;2023-07-20T04:53:12;17.88;82.74
68109;SHT30;54893;49.864;19.084;2023-07-20T04:58:13;17.78;82.73
68109;SHT30;54893;49.864;19.084;2023-07-20T05:03:13;18.04;83.31
68109;SHT30;54893;49.864;19.084;2023-07-20T05:08:13;18.56;80.72
68109;SHT30;54893;49.864;19.084;2023-07-20T05:13:14;18.89;80.00
68109;SHT30;54893;49.864;19.084;2023-07-20T05:18:14;19.73;79.23
68109;SHT30;54893;49.864;19.084;2023-07-20T05:23:19;20.24;77.36
68109;SHT30;54893;49.864;19.084;2023-07-20T05:28:20;20.59;76.20
68109;SHT30;54893;49.864;19.084;2023-07-20T05:33:21;21.07;73.85
68109;SHT30;54893;49.864;19.084;2023-07-20T05:38:21;21.14;73.12
68109;SHT30;54893;49.864;19.084;2023-07-20T05:43:22;21.39;72.33
68109;SHT30;54893;49.864;19.084;2023-07-20T05:48:23;21.71;72.57
68109;SHT30;54893;49.864;19.084;2023-07-20T05:53:24;21.13;72.15
68109;SHT30;54893;49.864;19.084;2023-07-20T05:58:24;20.85;73.95
68109;SHT30;54893;49.864;19.084;2023-07-20T06:03:24;21.63;72.47
68109;SHT30;54893;49.864;19.084;2023-07-20T06:08:25;21.47;71.39
68109;SHT30;54893;49.864;19.084;2023-07-20T06:13:25;22.22;70.21
68109;SHT30;54893;49.864;19.084;2023-07-20T06:18:26;22.31;70.33
68109;SHT30;54893;49.864;19.084;2023-07-20T06:23:26;22.11;70.49
68109;SHT30;54893;49.864;19.084;2023-07-20T06:28:26;22.01;69.32
68109;SHT30;54893;49.864;19.084;2023-07-20T06:33:27;22.55;68.57
68109;SHT30;54893;49.864;19.084;2023-07-20T06:38:27;22.45;68.20
68109;SHT30;54893;49.864;19.084;2023-07-20T06:43:29;22.48;67.67
68109;SHT30;54893;49.864;19.084;2023-07-20T06:48:29;22.25;66.92
68109;SHT30;54893;49.864;19.084;2023-07-20T06:53:30;22.47;67.32
68109;SHT30;54893;49.864;19.084;2023-07-20T06:58:30;22.73;67.12
68109;SHT30;54893;49.864;19.084;2023-07-20T07:03:31;22.64;66.36
68109;SHT30;54893;49.864;19.084;2023-07-20T07:08:31;21.98;68.58
68109;SHT30;54893;49.864;19.084;2023-07-20T07:13:31;22.04;67.87
68109;SHT30;54893;49.864;19.084;2023-07-20T07:18:32;22.32;66.48
68109;SHT30;54893;49.864;19.084;2023-07-20T07:23:32;21.87;68.08
68109;SHT30;54893;49.864;19.084;2023-07-20T07:28:32;21.80;69.42
68109;SHT30;54893;49.864;19.084;2023-07-20T07:33:33;21.60;68.31
68109;SHT30;54893;49.864;19.084;2023-07-20T07:38:34;22.51;68.19
68109;SHT30;54893;49.864;19.084;2023-07-20T07:43:34;22.89;67.40
68109;SHT30;54893;49.864;19.084;2023-07-20T07:48:35;23.03;66.49
68109;SHT30;54893;49.864;19.084;2023-07-20T07:53:35;23.06;66.74
68109;SHT30;54893;49.864;19.084;2023-07-20T07:58:37;23.52;65.98
68109;SHT30;54893;49.864;19.084;2023-07-20T08:03:37;23.73;65.89
68109;SHT30;54893;49.864;19.084;2023-07-20T08:08:38;22.71;67.22
68109;SHT30;54893;49.864;19.084;2023-07-20T08:13:38;22.76;67.12
68109;SHT30;54893;49.864;19.084;2023-07-20T08:18:38;23.20;66.50
68109;SHT30;54893;49.864;19.084;2023-07-20T08:23:39;23.20;66.62
68109;SHT30;54893;49.864;19.084;2023-07-20T08:28:39;22.51;68.36
68109;SHT30;54893;49.864;19.084;2023-07-20T08:33:39;22.35;69.11
68109;SHT30;54893;49.864;19.084;2023-07-20T08:38:40;22.10;69.94
68109;SHT30;54893;49.864;19.084;2023-07-20T08:43:42;21.53;70.70
68109;SHT30;54893;49.864;19.084;2023-07-20T08:48:43;21.43;71.69
68109;SHT30;54893;49.864;19.084;2023-07-20T08:53:45;22.61;69.89
68109;SHT30;54893;49.864;19.084;2023-07-20T08:58:46;22.84;68.58
68109;SHT30;54893;49.864;19.084;2023-07-20T09:03:46;22.76;69.32
68109;SHT30;54893;49.864;19.084;2023-07-20T09:08:46;22.75;68.16
68109;SHT30;54893;49.864;19.084;2023-07-20T09:13:47;23.84;66.20
68109;SHT30;54893;49.864;19.084;2023-07-20T09:18:47;23.05;67.81
68109;SHT30;54893;49.864;19.084;2023-07-20T09:23:47;24.03;65.52
68109;SHT30;54893;49.864;19.084;2023-07-20T09:28:51;23.45;65.58
68109;SHT30;54893;49.864;19.084;2023-07-20T09:33:52;23.60;65.89
68109;SHT30;54893;49.864;19.084;2023-07-20T09:38:53;23.81;64.76
68109;SHT30;54893;49.864;19.084;2023-07-20T09:43:54;24.01;64.74
68109;SHT30;54893;49.864;19.084;2023-07-20T09:48:54;24.38;63.28
68109;SHT30;54893;49.864;19.084;2023-07-20T09:53:55;24.34;62.67
68109;SHT30;54893;49.864;19.084;2023-07-20T09:58:56;25.33;61.68
68109;SHT30;54893;49.864;19.084;2023-07-20T10:03:58;25.49;60.82
68109;SHT30;54893;49.864;19.084;2023-07-20T10:09:03;24.25;64.23
68109;SHT30;54893;49.864;19.084;2023-07-20T10:14:07;24.64;60.39
68109;SHT30;54893;49.864;19.084;2023-07-20T10:19:15;24.13;59.59
68109;SHT30;54893;49.864;19.084;2023-07-20T10:24:18;25.20;60.63
68109;SHT30;54893;49.864;19.084;2023-07-20T10:29:19;24.61;60.43
68109;SHT30;54893;49.864;19.084;2023-07-20T10:34:19;25.15;59.01
68109;SHT30;54893;49.864;19.084;2023-07-20T10:39:31;24.65;60.22
68109;SHT30;54893;49.864;19.084;2023-07-20T10:44:32;24.58;59.57
68109;SHT30;54893;49.864;19.084;2023-07-20T10:49:35;24.60;60.82
68109;SHT30;54893;49.864;19.084;2023-07-20T10:54:55;24.27;60.54
68109;SHT30;54893;49.864;19.084;2023-07-20T11:00:12;24.35;61.05
68109;SHT30;54893;49.864;19.084;2023-07-20T11:10:32;24.34;60.87
68109;SHT30;54893;49.864;19.084;2023-07-20T11:16:01;24.11;61.19
68109;SHT30;54893;49.864;19.084;2023-07-20T11:21:07;23.83;62.31
68109;SHT30;54893;49.864;19.084;2023-07-20T11:26:07;23.57;63.09
68109;SHT30;54893;49.864;19.084;2023-07-20T11:31:09;24.37;61.58
68109;SHT30;54893;49.864;19.084;2023-07-20T11:36:09;24.52;62.72
68109;SHT30;54893;49.864;19.084;2023-07-20T11:41:09;24.21;63.35
68109;SHT30;54893;49.864;19.084;2023-07-20T11:46:10;23.93;63.24
68109;SHT30;54893;49.864;19.084;2023-07-20T11:51:16;23.69;63.30
68109;SHT30;54893;49.864;19.084;2023-07-20T11:56:17;23.62;62.84
68109;SHT30;54893;49.864;19.084;2023-07-20T12:01:17;23.45;63.11
68109;SHT30;54893;49.864;19.084;2023-07-20T12:06:17;23.56;62.24
68109;SHT30;54893;49.864;19.084;2023-07-20T12:11:34;23.87;61.89
68109;SHT30;54893;49.864;19.084;2023-07-20T12:16:36;24.11;61.12
68109;SHT30;54893;49.864;19.084;2023-07-20T12:21:38;24.85;59.83
68109;SHT30;54893;49.864;19.084;2023-07-20T12:26:38;25.52;57.93
68109;SHT30;54893;49.864;19.084;2023-07-20T12:31:39;25.59;56.91
68109;SHT30;54893;49.864;19.084;2023-07-20T12:36:39;25.25;57.51
68109;SHT30;54893;49.864;19.084;2023-07-20T12:41:39;24.45;59.64
68109;SHT30;54893;49.864;19.084;2023-07-20T12:46:40;25.89;56.39
68109;SHT30;54893;49.864;19.084;2023-07-20T12:51:40;25.36;56.07
68109;SHT30;54893;49.864;19.084;2023-07-20T12:56:41;25.69;56.82
68109;SHT30;54893;49.864;19.084;2023-07-20T13:01:41;25.82;57.01
68109;SHT30;54893;49.864;19.084;2023-07-20T13:06:43;26.08;56.07
68109;SHT30;54893;49.864;19.084;2023-07-20T13:11:43;25.56;56.82
68109;SHT30;54893;49.864;19.084;2023-07-20T13:16:44;25.16;57.33
68109;SHT30;54893;49.864;19.084;2023-07-20T13:21:44;26.07;55.30
68109;SHT30;54893;49.864;19.084;2023-07-20T13:26:44;26.54;54.38
68109;SHT30;54893;49.864;19.084;2023-07-20T13:31:45;26.65;54.14
68109;SHT30;54893;49.864;19.084;2023-07-20T13:36:46;27.16;53.59
68109;SHT30;54893;49.864;19.084;2023-07-20T13:41:46;26.16;54.10
68109;SHT30;54893;49.864;19.084;2023-07-20T13:46:47;25.19;54.51
68109;SHT30;54893;49.864;19.084;2023-07-20T13:51:48;24.82;55.57
68109;SHT30;54893;49.864;19.084;2023-07-20T13:56:48;24.18;57.44
68109;SHT30;54893;49.864;19.084;2023-07-20T14:01:48;23.66;57.29
68109;SHT30;54893;49.864;19.084;2023-07-20T14:06:49;23.53;58.21
68109;SHT30;54893;49.864;19.084;2023-07-20T14:11:50;23.50;57.96
68109;SHT30;54893;49.864;19.084;2023-07-20T14:16:50;23.34;57.51
68109;SHT30;54893;49.864;19.084;2023-07-20T14:21:50;23.19;58.20
68109;SHT30;54893;49.864;19.084;2023-07-20T14:26:51;23.10;57.64
68109;SHT30;54893;49.864;19.084;2023-07-20T14:31:51;22.59;59.39
68109;SHT30;54893;49.864;19.084;2023-07-20T14:36:52;21.26;68.83
68109;SHT30;54893;49.864;19.084;2023-07-20T14:41:53;20.25;74.05
68109;SHT30;54893;49.864;19.084;2023-07-20T14:46:53;19.51;77.36
68109;SHT30;54893;49.864;19.084;2023-07-20T14:51:54;18.62;82.92
68109;SHT30;54893;49.864;19.084;2023-07-20T14:56:54;18.08;85.33
68109;SHT30;54893;49.864;19.084;2023-07-20T15:01:56;20.48;79.17
68109;SHT30;54893;49.864;19.084;2023-07-20T15:06:56;18.63;83.61
68109;SHT30;54893;49.864;19.084;2023-07-20T15:11:57;18.59;82.51
68109;SHT30;54893;49.864;19.084;2023-07-20T15:16:57;18.53;85.74
68109;SHT30;54893;49.864;19.084;2023-07-20T15:21:57;19.34;82.62
68109;SHT30;54893;49.864;19.084;2023-07-20T15:26:58;24.10;74.83
68109;SHT30;54893;49.864;19.084;2023-07-20T15:31:59;27.42;65.52
68109;SHT30;54893;49.864;19.084;2023-07-20T15:36:59;26.72;63.51
68109;SHT30;54893;49.864;19.084;2023-07-20T15:41:59;24.40;71.25
68109;SHT30;54893;49.864;19.084;2023-07-20T15:47:00;23.34;74.59
68109;SHT30;54893;49.864;19.084;2023-07-20T15:52:01;24.17;68.20
68109;SHT30;54893;49.864;19.084;2023-07-20T15:57:01;29.33;59.42
68109;SHT30;54893;49.864;19.084;2023-07-20T16:02:01;30.48;54.93
68109;SHT30;54893;49.864;19.084;2023-07-20T16:07:04;31.96;52.63
68109;SHT30;54893;49.864;19.084;2023-07-20T16:12:07;32.16;50.74
68109;SHT30;54893;49.864;19.084;2023-07-20T16:17:07;31.43;51.87
68109;SHT30;54893;49.864;19.084;2023-07-20T16:22:08;31.28;50.89
68109;SHT30;54893;49.864;19.084;2023-07-20T16:27:11;31.15;52.82
68109;SHT30;54893;49.864;19.084;2023-07-20T16:32:12;28.06;56.75
68109;SHT30;54893;49.864;19.084;2023-07-20T16:37:12;24.28;62.28
68109;SHT30;54893;49.864;19.084;2023-07-20T16:42:12;22.99;63.98
68109;SHT30;54893;49.864;19.084;2023-07-20T16:47:13;22.61;64.48
68109;SHT30;54893;49.864;19.084;2023-07-20T16:52:14;26.06;58.83
68109;SHT30;54893;49.864;19.084;2023-07-20T16:57:14;27.36;55.85
68109;SHT30;54893;49.864;19.084;2023-07-20T17:02:14;27.89;55.56
68109;SHT30;54893;49.864;19.084;2023-07-20T17:07:15;30.19;51.15
68109;SHT30;54893;49.864;19.084;2023-07-20T17:12:15;30.90;49.83
68109;SHT30;54893;49.864;19.084;2023-07-20T17:17:16;31.06;48.46
68109;SHT30;54893;49.864;19.084;2023-07-20T17:22:16;30.56;49.73
68109;SHT30;54893;49.864;19.084;2023-07-20T17:27:17;28.72;51.02
68109;SHT30;54893;49.864;19.084;2023-07-20T17:32:17;26.28;55.17
68109;SHT30;54893;49.864;19.084;2023-07-20T17:37:17;24.47;58.78
68109;SHT30;54893;49.864;19.084;2023-07-20T17:42:21;22.84;61.47
68109;SHT30;54893;49.864;19.084;2023-07-20T17:47:21;21.93;63.38
68109;SHT30;54893;49.864;19.084;2023-07-20T17:52:21;21.42;64.07
68109;SHT30;54893;49.864;19.084;2023-07-20T17:57:22;21.63;64.02
68109;SHT30;54893;49.864;19.084;2023-07-20T18:02:22;22.85;61.78
68109;SHT30;54893;49.864;19.084;2023-07-20T18:07:25;24.11;59.95
68109;SHT30;54893;49.864;19.084;2023-07-20T18:12:25;24.13;60.44
68109;SHT30;54893;49.864;19.084;2023-07-20T18:17:26;23.16;62.49
68109;SHT30;54893;49.864;19.084;2023-07-20T18:22:26;21.67;65.45
68109;SHT30;54893;49.864;19.084;2023-07-20T18:27:26;20.79;68.95
68109;SHT30;54893;49.864;19.084;2023-07-20T18:32:27;20.01;71.32
68109;SHT30;54893;49.864;19.084;2023-07-20T18:37:28;19.49;73.02
68109;SHT30;54893;49.864;19.084;2023-07-20T18:42:28;19.02;74.14
68109;SHT30;54893;49.864;19.084;2023-07-20T18:47:28;18.88;70.47
68109;SHT30;54893;49.864;19.084;2023-07-20T18:52:29;18.62;70.15
68109;SHT30;54893;49.864;19.084;2023-07-20T18:57:30;18.27;70.79
68109;SHT30;54893;49.864;19.084;2023-07-20T19:02:31;18.05;72.90
68109;SHT30;54893;49.864;19.084;2023-07-20T19:07:31;17.75;76.11
68109;SHT30;54893;49.864;19.084;2023-07-20T19:12:31;17.60;78.47
68109;SHT30;54893;49.864;19.084;2023-07-20T19:17:32;17.69;73.28
68109;SHT30;54893;49.864;19.084;2023-07-20T19:22:32;17.84;72.58
68109;SHT30;54893;49.864;19.084;2023-07-20T19:27:33;17.90;72.52
68109;SHT30;54893;49.864;19.084;2023-07-20T19:32:34;17.77;73.81
68109;SHT30;54893;49.864;19.084;2023-07-20T19:37:35;17.69;76.32
68109;SHT30;54893;49.864;19.084;2023-07-20T19:42:35;17.55;78.11
68109;SHT30;54893;49.864;19.084;2023-07-20T19:47:36;17.49;78.61
68109;SHT30;54893;49.864;19.084;2023-07-20T19:52:36;17.53;75.63
68109;SHT30;54893;49.864;19.084;2023-07-20T19:57:39;17.53;79.28
68109;SHT30;54893;49.864;19.084;2023-07-20T20:02:39;17.50;77.21
68109;SHT30;54893;49.864;19.084;2023-07-20T20:07:40;17.46;76.68
68109;SHT30;54893;49.864;19.084;2023-07-20T20:12:40;17.43;73.72
68109;SHT30;54893;49.864;19.084;2023-07-20T20:17:41;17.43;77.83
68109;SHT30;54893;49.864;19.084;2023-07-20T20:22:42;17.31;76.90
68109;SHT30;54893;49.864;19.084;2023-07-20T20:27:42;17.26;78.94
68109;SHT30;54893;49.864;19.084;2023-07-20T20:32:43;17.22;76.95
68109;SHT30;54893;49.864;19.084;2023-07-20T20:37:43;17.16;78.30
68109;SHT30;54893;49.864;19.084;2023-07-20T20:42:44;17.09;78.95
68109;SHT30;54893;49.864;19.084;2023-07-20T20:47:45;17.06;78.01
68109;SHT30;54893;49.864;19.084;2023-07-20T20:52:46;16.93;78.14
68109;SHT30;54893;49.864;19.084;2023-07-20T20:57:47;16.77;78.77
68109;SHT30;54893;49.864;19.084;2023-07-20T21:02:49;16.63;78.02
68109;SHT30;54893;49.864;19.084;2023-07-20T21:07:50;16.48;78.82
68109;SHT30;54893;49.864;19.084;2023-07-20T21:12:50;16.24;78.82
68109;SHT30;54893;49.864;19.084;2023-07-20T21:17:51;16.08;77.01
68109;SHT30;54893;49.864;19.084;2023-07-20T21:22:51;16.09;77.92
68109;SHT30;54893;49.864;19.084;2023-07-20T21:27:58;16.02;80.05
68109;SHT30;54893;49.864;19.084;2023-07-20T21:32:59;15.87;79.38
68109;SHT30;54893;49.864;19.084;2023-07-20T21:37:59;15.64;81.39
68109;SHT30;54893;49.864;19.084;2023-07-20T21:42:59;15.43;80.90
68109;SHT30;54893;49.864;19.084;2023-07-20T21:48:00;15.46;80.30
68109;SHT30;54893;49.864;19.084;2023-07-20T21:53:00;15.36;81.27
68109;SHT30;54893;49.864;19.084;2023-07-20T21:58:01;15.46;81.28
68109;SHT30;54893;49.864;19.084;2023-07-20T22:03:02;15.49;81.56
68109;SHT30;54893;49.864;19.084;2023-07-20T22:08:02;15.41;81.06
68109;SHT30;54893;49.864;19.084;2023-07-20T22:13:03;15.26;80.99
68109;SHT30;54893;49.864;19.084;2023-07-20T22:18:03;15.16;80.80
68109;SHT30;54893;49.864;19.084;2023-07-20T22:23:05;15.03;81.32
68109;SHT30;54893;49.864;19.084;2023-07-20T22:28:05;15.04;82.32
68109;SHT30;54893;49.864;19.084;2023-07-20T22:33:06;15.04;81.52
68109;SHT30;54893;49.864;19.084;2023-07-20T22:38:06;15.13;80.64
68109;SHT30;54893;49.864;19.084;2023-07-20T22:43:07;14.99;81.58
68109;SHT30;54893;49.864;19.084;2023-07-20T22:48:07;14.99;81.89
68109;SHT30;54893;49.864;19.084;2023-07-20T22:53:07;14.97;81.62
68109;SHT30;54893;49.864;19.084;2023-07-20T22:58:08;14.87;82.19
68109;SHT30;54893;49.864;19.084;2023-07-20T23:03:08;14.76;82.42
68109;SHT30;54893;49.864;19.084;2023-07-20T23:08:08;14.52;82.93
68109;SHT30;54893;49.864;19.084;2023-07-20T23:13:09;14.45;82.99
68109;SHT30;54893;49.864;19.084;2023-07-20T23:18:09;14.35;83.68
68109;SHT30;54893;49.864;19.084;2023-07-20T23:23:11;14.33;84.28
68109;SHT30;54893;49.864;19.084;2023-07-20T23:28:11;14.28;84.82
68109;SHT30;54893;49.864;19.084;2023-07-20T23:33:12;14.24;85.19
68109;SHT30;54893;49.864;19.084;2023-07-20T23:38:12;14.24;85.38
68109;SHT30;54893;49.864;19.084;2023-07-20T23:43:13;14.15;87.12
68109;SHT30;54893;49.864;19.084;2023-07-20T23:48:13;14.04;87.19
68109;SHT30;54893;49.864;19.084;2023-07-20T23:53:14;14.04;85.74
68109;SHT30;54893;49.864;19.084;2023-07-20T23:58:14;14.07;86.14
